EW9305 Weather Reports


time (UTC)temp
C
wind
direction
speed
KPH
gust
KPH
rain 1hr
cm
rain 24hr
cm
rain mn
cm
humidity
%
barometer
mb
20201125235128 13 45 0.0 0.0 0.00 0.30 0.13 52 1019.6
20201125234124 15 45 0.0 0.0 0.00 0.30 0.13 43 1019.7
20201125233222 16 45 0.0 0.0 0.00 0.30 0.13 38 1019.6
20201125233125 16 45 0.0 0.0 0.00 0.30 0.13 38 1019.5
20201125233029 16 45 0.0 0.0 0.00 0.30 0.13 38 1019.5
20201125232926 16 45 0.0 0.0 0.00 0.30 0.13 37 1019.6
20201125231922 17 45 0.0 0.0 0.00 0.30 0.13 35 1019.6
20201125231822 17 45 0.0 0.0 0.00 0.30 0.13 35 1019.6
20201125231723 17 45 0.0 0.0 0.00 0.30 0.13 35 1019.6
20201125230722 17 45 0.0 0.0 0.03 0.30 0.13 32 1019.6
20201125230626 17 45 0.0 0.0 0.03 0.30 0.13 32 1019.5
20201125230523 17 45 0.0 0.0 0.03 0.30 0.13 32 1019.5
20201125225522 17 45 0.0 1.6 0.03 0.30 0.13 31 1019.5
20201125225422 17 45 0.0 3.2 0.03 0.30 0.13 31 1019.5
20201125225323 17 45 1.6 3.2 0.03 0.30 0.13 31 1019.5
20201125224323 18 45 1.6 3.2 0.03 0.30 0.13 30 1019.5
20201125223322 19 22 0.0 0.0 0.03 0.30 0.13 28 1019.6
20201125222322 20 360 1.6 1.6 0.03 0.30 0.13 28 1019.6
20201125222223 20 360 0.0 1.6 0.03 0.30 0.13 29 1019.5
20201125221325 20 360 4.8 4.8 0.03 0.30 0.13 29 1019.5
20201125221224 20 360 4.8 6.4 0.03 0.30 0.13 29 1019.6
20201125220222 20 22 0.0 0.0 0.00 0.28 0.10 28 1019.6
20201125220127 20 22 0.0 0.0 0.00 0.28 0.10 29 1019.5
20201125220031 19 22 0.0 0.0 0.00 0.28 0.10 28 1019.6
20201125215023 19 22 0.0 0.0 0.00 0.28 0.10 28 1019.5
20201125214040 18 337 1.6 1.6 0.00 0.28 0.10 28 1019.5
20201125213025 19 360 3.2 8.0 0.00 0.28 0.10 29 1019.7
20201125212031 18 341 3.2 6.4 0.00 0.28 0.10 29 1019.7
20201125211030 17 337 0.0 3.2 0.00 0.28 0.10 30 1019.7
20201125210122 17 270 1.6 3.2 0.00 0.28 0.10 30 1019.9
20201125210041 17 270 1.6 3.2 0.00 0.28 0.10 31 1019.7
20201125205045 17 315 4.8 4.8 0.00 0.28 0.10 31 1019.9
20201125204125 18 360 6.4 9.7 0.00 0.28 0.10 31 1019.9
20201125203126 17 327 0.0 3.2 0.00 0.28 0.10 33 1020.0
20201125202225 16 337 3.2 6.4 0.00 0.28 0.10 33 1020.2
20201125201223 16 291 3.2 6.4 0.00 0.28 0.10 32 1020.2
20201125200228 16 339 9.7 12.9 0.00 0.28 0.10 34 1020.2
20201125200126 16 352 1.6 4.8 0.00 0.28 0.10 34 1020.3
20201125200047 16 360 3.2 4.8 0.00 0.28 0.10 34 1020.3
20201125195023 16 287 9.7 11.3 0.00 0.28 0.10 33 1020.5
20201125194923 16 270 11.3 12.9 0.00 0.28 0.10 34 1020.5
20201125194825 16 270 9.7 11.3 0.00 0.28 0.10 35 1020.4
20201125193922 15 337 8.0 9.7 0.00 0.28 0.10 35 1020.7
20201125192925 15 334 6.4 9.7 0.00 0.28 0.10 35 1020.8
20201125191923 15 247 9.7 11.3 0.00 0.28 0.10 36 1021.0
20201125191824 15 244 9.7 12.9 0.00 0.28 0.10 35 1021.0
20201125190923 15 266 4.8 8.0 0.00 0.28 0.10 37 1021.1
20201125185924 15 304 8.0 9.7 0.00 0.28 0.10 36 1021.3
20201125184928 14 318 9.7 11.3 0.00 0.28 0.10 38 1021.4
20201125183926 14 283 8.0 11.3 0.00 0.28 0.10 40 1021.6
20201125182930 14 312 11.3 12.9 0.00 0.30 0.10 41 1021.8
20201125181924 13 277 9.7 12.9 0.00 0.30 0.10 41 1021.8
20201125180923 13 296 12.9 14.5 0.00 0.30 0.10 41 1022.1
20201125180823 13 291 11.3 16.1 0.00 0.30 0.10 42 1022.1
20201125175825 13 289 8.0 9.7 0.00 0.30 0.10 42 1022.4
20201125174924 13 315 11.3 12.9 0.00 0.30 0.10 44 1022.5
20201125174824 13 294 11.3 14.5 0.00 0.30 0.10 44 1022.5
20201125174725 13 272 11.3 16.1 0.00 0.30 0.10 45 1022.6
20201125173722 12 292 9.7 12.9 0.00 0.30 0.10 47 1022.6
20201125172722 12 299 6.4 8.0 0.00 0.30 0.10 48 1022.8
20201125171724 12 300 14.5 17.7 0.00 0.30 0.10 50 1022.8
20201125170725 12 322 12.9 16.1 0.00 0.30 0.10 50 1022.7
20201125170621 12 329 14.5 17.7 0.00 0.30 0.10 50 1022.8
20201125170528 12 315 11.3 12.9 0.00 0.30 0.10 49 1022.8
20201125165529 11 305 14.5 17.7 0.00 0.30 0.10 50 1022.9
20201125164526 11 283 14.5 17.7 0.00 0.30 0.10 51 1022.9
20201125163524 11 317 17.7 20.9 0.00 0.30 0.10 52 1022.8
20201125162523 11 292 12.9 16.1 0.03 0.30 0.10 51 1022.9
20201125162421 11 290 12.9 16.1 0.03 0.30 0.10 52 1022.9
20201125161424 11 301 14.5 19.3 0.03 0.30 0.10 53 1022.9
20201125160424 11 308 17.7 24.1 0.03 0.30 0.10 54 1022.7
20201125155434 11 283 17.7 22.5 0.03 0.30 0.10 55 1022.7
20201125154524 10 303 17.7 22.5 0.03 0.30 0.10 57 1022.6
20201125153526 10 279 16.1 19.3 0.03 0.30 0.10 57 1022.6
20201125152539 10 290 14.5 17.7 0.00 0.28 0.08 58 1022.5
20201125152424 10 285 17.7 24.1 0.00 0.28 0.08 58 1022.5
20201125151422 10 282 17.7 24.1 0.00 0.28 0.08 59 1022.4
20201125150422 10 285 14.5 20.9 0.00 0.28 0.08 61 1022.0
20201125145424 9 271 19.3 24.1 0.00 0.28 0.08 62 1021.9
20201125144424 9 286 16.1 19.3 0.00 0.28 0.08 63 1021.9
20201125144323 9 270 16.1 17.7 0.00 0.28 0.08 63 1021.9
20201125144224 9 270 17.7 22.5 0.00 0.28 0.08 62 1021.9
20201125143223 9 270 16.1 17.7 0.00 0.28 0.08 64 1021.6
20201125143126 9 274 17.7 22.5 0.00 0.28 0.08 64 1021.6
20201125143028 9 275 16.1 22.5 0.00 0.28 0.08 63 1021.6
20201125142028 9 277 14.5 20.9 0.00 0.28 0.08 64 1021.6
20201125141047 8 282 12.9 14.5 0.03 0.28 0.08 66 1021.3
20201125140121 8 288 12.9 17.7 0.03 0.28 0.08 67 1021.2
20201125140038 8 279 11.3 19.3 0.03 0.28 0.08 68 1021.2
20201125135124 8 277 11.3 12.9 0.03 0.28 0.08 70 1021.0
20201125134222 7 304 11.3 16.1 0.03 0.28 0.08 73 1020.8
20201125134138 7 271 9.7 12.9 0.03 0.28 0.08 73 1020.8
20201125133227 7 270 4.8 6.4 0.03 0.28 0.08 73 1020.6
20201125132228 7 296 4.8 6.4 0.03 0.28 0.08 75 1020.4
20201125131321 7 296 6.4 11.3 0.00 0.25 0.05 75 1020.3
20201125130322 7 294 8.0 11.3 0.00 0.25 0.05 76 1020.0
20201125130223 7 311 6.4 9.7 0.00 0.25 0.05 76 1020.1
20201125125323 7 289 8.0 12.9 0.00 0.25 0.05 75 1020.2
20201125124324 7 295 11.3 12.9 0.00 0.25 0.05 76 1019.9
20201125124221 7 280 9.7 12.9 0.00 0.25 0.05 75 1019.9
20201125123226 7 275 11.3 12.9 0.00 0.25 0.05 75 1019.8
20201125122222 7 280 9.7 12.9 0.00 0.25 0.05 75 1019.9
20201125121222 7 270 9.7 12.9 0.00 0.25 0.05 75 1019.7
20201125120222 7 272 14.5 16.1 0.00 0.25 0.05 75 1019.6
20201125115225 7 270 12.9 14.5 0.00 0.25 0.05 75 1019.6
20201125114330 7 279 12.9 17.7 0.00 0.25 0.05 75 1019.4
20201125114237 7 273 14.5 17.7 0.00 0.25 0.05 75 1019.3
20201125113325 7 270 16.1 19.3 0.00 0.28 0.05 74 1019.2
20201125112323 7 275 16.1 22.5 0.00 0.28 0.05 75 1019.2
20201125111324 7 272 16.1 20.9 0.00 0.28 0.05 75 1018.9
20201125111223 7 274 16.1 22.5 0.00 0.28 0.05 75 1019.0
20201125111121 7 272 14.5 17.7 0.00 0.28 0.05 75 1019.0
20201125110122 7 271 14.5 17.7 0.00 0.28 0.05 76 1019.1
20201125105128 7 277 14.5 19.3 0.00 0.28 0.05 76 1019.0
20201125105024 7 271 16.1 19.3 0.00 0.28 0.05 76 1019.0
20201125104138 8 270 14.5 19.3 0.00 0.28 0.05 76 1019.1
20201125103123 8 270 14.5 19.3 0.00 0.28 0.05 75 1019.1
20201125103049 8 280 14.5 17.7 0.00 0.28 0.05 74 1019.1
20201125102033 8 270 11.3 14.5 0.00 0.28 0.05 75 1019.2
20201125101022 8 276 9.7 11.3 0.00 0.28 0.05 74 1019.1
20201125100122 8 270 9.7 12.9 0.00 0.28 0.05 73 1019.2
20201125100030 8 283 9.7 12.9 0.00 0.28 0.05 72 1019.2
20201125095024 8 270 9.7 12.9 0.00 0.28 0.05 71 1019.0
20201125094027 8 279 11.3 12.9 0.03 0.28 0.05 71 1019.0
20201125093121 8 270 11.3 16.1 0.03 0.28 0.05 72 1019.0
20201125093042 8 276 8.0 11.3 0.03 0.28 0.05 71 1019.0
20201125092122 9 280 11.3 14.5 0.03 0.28 0.05 71 1018.9
20201125092023 9 275 11.3 14.5 0.03 0.28 0.05 71 1019.0
20201125091040 9 270 11.3 12.9 0.03 0.28 0.05 70 1018.9
20201125090158 9 270 12.9 16.1 0.03 0.28 0.05 70 1018.8
20201125090053 9 270 16.1 20.9 0.03 0.28 0.05 69 1018.8
20201125085024 9 273 14.5 19.3 0.03 0.28 0.03 68 1018.4
20201125084922 9 280 16.1 19.3 0.00 0.25 0.03 69 1018.4
20201125083925 10 272 11.3 14.5 0.00 0.25 0.03 68 1018.6
20201125082926 10 284 17.7 20.9 0.00 0.25 0.03 68 1018.3
20201125081923 10 279 19.3 30.6 0.00 0.25 0.03 68 1018.3
20201125081825 10 285 11.3 14.5 0.00 0.25 0.03 67 1018.3
20201125080823 10 281 16.1 17.7 0.00 0.25 0.03 67 1018.0
20201125080722 10 274 16.1 19.3 0.00 0.25 0.03 67 1018.0
20201125075725 11 309 19.3 24.1 0.00 0.25 0.03 67 1018.0
20201125074724 11 317 19.3 27.4 0.00 0.25 0.03 67 1017.7
20201125073721 11 288 17.7 24.1 0.03 0.25 0.03 66 1017.4
20201125072723 11 299 24.1 30.6 0.03 0.25 0.03 67 1017.2
20201125072621 11 323 19.3 22.5 0.03 0.25 0.03 66 1017.2
20201125072523 11 307 19.3 33.8 0.03 0.25 0.03 67 1017.2
20201125072426 11 288 20.9 33.8 0.03 0.25 0.03 67 1017.3
20201125071424 12 308 16.1 24.1 0.03 0.25 0.03 67 1017.0
20201125071328 12 301 20.9 24.1 0.03 0.25 0.03 66 1016.9
20201125070322 12 304 22.5 29.0 0.03 0.25 0.03 64 1016.7
20201125065323 12 311 32.2 43.5 0.03 0.25 0.03 63 1016.5
20201125064323 13 295 24.1 38.6 0.03 0.25 0.03 64 1016.2
20201125063324 13 307 17.7 22.5 0.00 0.23 0.00 64 1015.7
20201125062324 14 300 24.1 30.6 0.03 0.23 0.00 64 1015.5
20201125061327 14 306 22.5 29.0 0.03 0.23 0.00 63 1015.0
20201125061223 15 311 24.1 30.6 0.03 0.23 0.00 64 1015.1
20201125060323 15 311 24.1 29.0 0.05 0.23 0.00 63 1014.8
20201125060221 15 310 24.1 29.0 0.05 0.23 0.00 63 1014.8
20201125060123 15 305 25.7 32.2 0.05 0.23 0.00 63 1014.6
20201125060044 15 308 27.4 35.4 0.05 0.23 0.00 62 1014.6